createdAt,value
2018-07-26T00:00:06.839Z,1000.31
2018-07-26T00:01:06.850Z,1000.30
2018-07-26T00:02:06.820Z,1000.33
2018-07-26T00:03:06.811Z,1000.34
2018-07-26T00:04:06.796Z,1000.31
2018-07-26T00:05:06.797Z,1000.33
2018-07-26T00:06:06.798Z,1000.36
2018-07-26T00:07:06.764Z,1000.31
2018-07-26T00:08:06.753Z,1000.35
2018-07-26T00:09:06.742Z,1000.37
2018-07-26T00:10:06.737Z,1000.35
2018-07-26T00:11:06.747Z,1000.31
2018-07-26T00:12:06.731Z,1000.34
2018-07-26T00:13:06.716Z,1000.31
2018-07-26T00:14:06.697Z,1000.33
2018-07-26T00:15:06.679Z,1000.32
2018-07-26T00:16:06.701Z,1000.29
2018-07-26T00:17:06.658Z,1000.30
2018-07-26T00:18:06.648Z,1000.26
2018-07-26T00:19:06.637Z,1000.29
2018-07-26T00:20:06.626Z,1000.31
2018-07-26T00:21:06.616Z,1000.30
2018-07-26T00:22:06.624Z,1000.23
2018-07-26T00:23:06.594Z,1000.24
2018-07-26T00:24:06.583Z,1000.26
2018-07-26T00:25:06.573Z,1000.27
2018-07-26T00:26:06.563Z,1000.31
2018-07-26T00:27:06.576Z,1000.30
2018-07-26T00:28:06.556Z,1000.30
2018-07-26T00:29:06.530Z,1000.26
2018-07-26T00:30:06.531Z,1000.31
2018-07-26T00:31:06.514Z,1000.29
2018-07-26T00:32:06.519Z,1000.32
2018-07-26T00:33:06.492Z,1000.35
2018-07-26T00:34:06.479Z,1000.32
2018-07-26T00:35:06.472Z,1000.35
2018-07-26T00:36:06.459Z,1000.33
2018-07-26T00:37:06.465Z,1000.29
2018-07-26T00:38:06.435Z,1000.29
2018-07-26T00:39:06.425Z,1000.32
2018-07-26T00:40:06.415Z,1000.34
2018-07-26T00:41:06.406Z,1000.32
2018-07-26T00:42:06.412Z,1000.30
2018-07-26T00:43:06.389Z,1000.34
2018-07-26T00:44:06.382Z,1000.31
2018-07-26T00:45:06.360Z,1000.31
2018-07-26T00:46:06.352Z,1000.30
2018-07-26T00:47:06.358Z,1000.33
2018-07-26T00:48:06.330Z,1000.33
2018-07-26T00:49:06.318Z,1000.31
2018-07-26T00:50:06.311Z,1000.31
2018-07-26T00:51:06.297Z,1000.34
2018-07-26T00:52:06.308Z,1000.32
2018-07-26T00:53:06.275Z,1000.39
2018-07-26T00:54:06.265Z,1000.37
2018-07-26T00:55:06.254Z,1000.34
2018-07-26T00:56:06.246Z,1000.37
2018-07-26T00:57:06.253Z,1000.33
2018-07-26T00:58:06.242Z,1000.36
2018-07-26T00:59:06.211Z,1000.34
2018-07-26T01:00:06.240Z,1000.27
2018-07-26T01:01:06.192Z,1000.29
2018-07-26T01:02:06.202Z,1000.34
2018-07-26T01:03:06.169Z,1000.29
2018-07-26T01:04:06.156Z,1000.27
2018-07-26T01:05:06.146Z,1000.22
2018-07-26T01:06:06.136Z,1000.30
2018-07-26T01:07:06.147Z,1000.23
2018-07-26T01:08:06.116Z,1000.26
2018-07-26T01:09:06.109Z,1000.27
2018-07-26T01:10:06.101Z,1000.25
2018-07-26T01:11:06.089Z,1000.23
2018-07-26T01:12:06.088Z,1000.23
2018-07-26T01:13:06.059Z,1000.22
2018-07-26T01:14:06.066Z,1000.18
2018-07-26T01:15:06.041Z,1000.26
2018-07-26T01:16:06.038Z,1000.21
2018-07-26T01:17:06.043Z,1000.22
2018-07-26T01:18:06.012Z,1000.22
2018-07-26T01:19:05.997Z,1000.22
2018-07-26T01:20:05.984Z,1000.27
2018-07-26T01:21:05.980Z,1000.26
2018-07-26T01:22:05.962Z,1000.26
2018-07-26T01:23:05.980Z,1000.24
2018-07-26T01:24:05.946Z,1000.21
2018-07-26T01:25:05.936Z,1000.20
2018-07-26T01:26:05.919Z,1000.26
2018-07-26T01:27:05.909Z,1000.25
2018-07-26T01:28:05.899Z,1000.25
2018-07-26T01:29:05.907Z,1000.25
2018-07-26T01:30:05.877Z,1000.21
2018-07-26T01:31:05.866Z,1000.21
2018-07-26T01:32:05.859Z,1000.23
2018-07-26T01:33:05.845Z,1000.22
2018-07-26T01:34:05.852Z,1000.22
2018-07-26T01:35:05.825Z,1000.21
2018-07-26T01:36:05.816Z,1000.25
2018-07-26T01:37:05.803Z,1000.30
2018-07-26T01:38:05.824Z,1000.27
2018-07-26T01:39:05.802Z,1000.21
2018-07-26T01:40:05.772Z,1000.24
2018-07-26T01:41:05.760Z,1000.23
2018-07-26T01:42:05.749Z,1000.23
2018-07-26T01:43:05.738Z,1000.19
2018-07-26T01:44:05.749Z,1000.20
2018-07-26T01:45:05.716Z,1000.21
2018-07-26T01:46:05.711Z,1000.18
2018-07-26T01:47:05.698Z,1000.18
2018-07-26T01:48:05.685Z,1000.17
2018-07-26T01:49:05.701Z,1000.20
2018-07-26T01:50:05.665Z,1000.23
2018-07-26T01:51:05.655Z,1000.23
2018-07-26T01:52:05.640Z,1000.24
2018-07-26T01:53:05.632Z,1000.24
2018-07-26T01:54:05.620Z,1000.24
2018-07-26T01:55:05.628Z,1000.25
2018-07-26T01:56:05.624Z,1000.22
2018-07-26T01:57:05.588Z,1000.24
2018-07-26T01:58:05.577Z,1000.20
2018-07-26T01:59:05.567Z,1000.24
2018-07-26T02:00:05.575Z,1000.23
2018-07-26T02:01:05.545Z,1000.25
2018-07-26T02:02:05.534Z,1000.22
2018-07-26T02:03:05.533Z,1000.22
2018-07-26T02:04:05.521Z,1000.24
2018-07-26T02:05:05.566Z,1000.19
2018-07-26T02:06:05.491Z,1000.19
2018-07-26T02:07:05.495Z,1000.19
2018-07-26T02:08:05.469Z,1000.15
2018-07-26T02:09:05.458Z,1000.16
2018-07-26T02:10:05.469Z,1000.15
2018-07-26T02:11:05.440Z,1000.12
2018-07-26T02:12:05.427Z,1000.09
2018-07-26T02:13:05.416Z,1000.09
2018-07-26T02:14:05.405Z,1000.09
2018-07-26T02:15:05.414Z,1000.09
2018-07-26T02:16:05.384Z,1000.07
2018-07-26T02:17:05.373Z,1000.06
2018-07-26T02:18:05.364Z,1000.08
2018-07-26T02:19:05.352Z,1000.07
2018-07-26T02:20:05.362Z,1000.06
2018-07-26T02:21:05.330Z,1000.07
2018-07-26T02:22:05.318Z,1000.08
2018-07-26T02:23:05.315Z,1000.07
2018-07-26T02:24:05.300Z,1000.11
2018-07-26T02:25:05.306Z,1000.09
2018-07-26T02:26:05.275Z,1000.07
2018-07-26T02:27:05.275Z,1000.05
2018-07-26T02:28:05.256Z,1000.06
2018-07-26T02:29:05.257Z,1000.09
2018-07-26T02:30:05.267Z,1000.05
2018-07-26T02:31:05.282Z,1000.09
2018-07-26T02:32:05.212Z,1000.09
2018-07-26T02:33:05.202Z,1000.06
2018-07-26T02:34:05.196Z,1000.06
2018-07-26T02:35:05.179Z,1000.05
2018-07-26T02:36:05.189Z,1000.08
2018-07-26T02:37:05.158Z,1000.09
2018-07-26T02:38:05.148Z,1000.09
2018-07-26T02:39:05.156Z,1000.02
2018-07-26T02:40:05.125Z,1000.07
2018-07-26T02:41:05.136Z,1000.05
2018-07-26T02:42:05.108Z,1000.08
2018-07-26T02:43:05.094Z,1000.08
2018-07-26T02:44:05.084Z,1000.05
2018-07-26T02:45:05.079Z,1000.11
2018-07-26T02:46:05.085Z,1000.07
2018-07-26T02:47:05.051Z,1000.09
2018-07-26T02:48:05.040Z,1000.06
2018-07-26T02:49:05.044Z,1000.12
2018-07-26T02:50:05.031Z,1000.12
2018-07-26T02:51:05.052Z,1000.13
2018-07-26T02:52:04.997Z,1000.13
2018-07-26T02:53:04.989Z,1000.10
2018-07-26T02:54:04.976Z,1000.07
2018-07-26T02:55:04.966Z,1000.10
2018-07-26T02:56:04.974Z,1000.09
2018-07-26T02:57:04.943Z,1000.03
2018-07-26T02:58:04.932Z,1000.10
2018-07-26T02:59:04.924Z,1000.12
2018-07-26T03:00:04.911Z,1000.12
2018-07-26T03:01:04.920Z,1000.14
2018-07-26T03:02:04.889Z,1000.13
2018-07-26T03:03:04.881Z,1000.11
2018-07-26T03:04:04.869Z,1000.10
2018-07-26T03:05:04.857Z,1000.09
2018-07-26T03:06:04.873Z,1000.14
2018-07-26T03:07:04.868Z,1000.13
2018-07-26T03:08:04.833Z,1000.14
2018-07-26T03:09:04.814Z,1000.15
2018-07-26T03:10:04.803Z,1000.14
2018-07-26T03:11:04.812Z,1000.15
2018-07-26T03:12:04.784Z,1000.15
2018-07-26T03:13:04.775Z,1000.16
2018-07-26T03:14:04.760Z,1000.12
2018-07-26T03:15:04.799Z,1000.11
2018-07-26T03:16:04.809Z,1000.10
2018-07-26T03:17:04.729Z,1000.09
2018-07-26T03:18:04.717Z,1000.10
2018-07-26T03:19:04.727Z,1000.10
2018-07-26T03:20:04.696Z,1000.07
2018-07-26T03:21:04.745Z,1000.04
2018-07-26T03:22:04.673Z,1000.08
2018-07-26T03:23:04.679Z,1000.10
2018-07-26T03:24:04.680Z,1000.11
2018-07-26T03:25:04.641Z,1000.06
2018-07-26T03:26:04.651Z,1000.08
2018-07-26T03:27:04.619Z,1000.07
2018-07-26T03:28:04.610Z,1000.08
2018-07-26T03:29:04.597Z,1000.06
2018-07-26T03:30:04.594Z,1000.06
2018-07-26T03:31:04.619Z,1000.07
2018-07-26T03:32:04.571Z,1000.07
2018-07-26T03:33:04.554Z,1000.07
2018-07-26T03:34:04.554Z,1000.06
2018-07-26T03:35:04.535Z,1000.07
2018-07-26T03:36:04.522Z,1000.08
2018-07-26T03:37:04.530Z,1000.11
2018-07-26T03:38:04.502Z,1000.12
2018-07-26T03:39:04.514Z,1000.12
2018-07-26T03:40:04.479Z,1000.05
2018-07-26T03:41:04.476Z,1000.09
2018-07-26T03:42:04.488Z,1000.09
2018-07-26T03:43:04.451Z,1000.06
2018-07-26T03:44:04.434Z,1000.07
2018-07-26T03:45:04.440Z,1000.07
2018-07-26T03:46:04.445Z,1000.07
2018-07-26T03:47:04.422Z,1000.10
2018-07-26T03:48:04.393Z,1000.09
2018-07-26T03:49:04.393Z,1000.12
2018-07-26T03:50:04.369Z,1000.10
2018-07-26T03:51:04.403Z,1000.13
2018-07-26T03:52:04.367Z,1000.18
2018-07-26T03:53:04.353Z,1000.20
2018-07-26T03:54:04.327Z,1000.14
2018-07-26T03:55:04.315Z,1000.18
2018-07-26T03:56:04.306Z,1000.14
2018-07-26T03:57:04.317Z,1000.17
2018-07-26T03:58:04.296Z,1000.13
2018-07-26T03:59:04.298Z,1000.15
2018-07-26T04:00:04.328Z,1000.15
2018-07-26T04:01:04.249Z,1000.17
2018-07-26T04:02:04.259Z,1000.13
2018-07-26T04:03:04.228Z,1000.17
2018-07-26T04:04:04.234Z,1000.15
2018-07-26T04:05:04.206Z,1000.15
2018-07-26T04:06:04.200Z,1000.16
2018-07-26T04:07:04.204Z,1000.15
2018-07-26T04:08:04.185Z,1000.20
2018-07-26T04:09:04.163Z,1000.15
2018-07-26T04:10:04.161Z,1000.14
2018-07-26T04:11:04.142Z,1000.18
2018-07-26T04:12:04.163Z,1000.15
2018-07-26T04:13:04.149Z,1000.11
2018-07-26T04:14:04.148Z,1000.14
2018-07-26T04:15:04.102Z,1000.13
2018-07-26T04:16:04.088Z,1000.11
2018-07-26T04:17:04.099Z,1000.12
2018-07-26T04:18:04.066Z,1000.14
2018-07-26T04:19:04.056Z,1000.13
2018-07-26T04:20:04.105Z,1000.16
2018-07-26T04:21:04.038Z,1000.19
2018-07-26T04:22:04.047Z,1000.20
2018-07-26T04:23:04.027Z,1000.23
2018-07-26T04:24:04.001Z,1000.18
2018-07-26T04:25:03.992Z,1000.18
2018-07-26T04:26:04.035Z,1000.21
2018-07-26T04:27:03.989Z,1000.25
2018-07-26T04:28:03.958Z,1000.23
2018-07-26T04:29:03.951Z,1000.27
2018-07-26T04:30:03.938Z,1000.28
2018-07-26T04:31:03.929Z,1000.26
2018-07-26T04:32:04.036Z,1000.29
2018-07-26T04:33:03.906Z,1000.25
2018-07-26T04:34:03.894Z,1000.29
2018-07-26T04:35:03.885Z,1000.30
2018-07-26T04:36:03.879Z,1000.31
2018-07-26T04:37:03.880Z,1000.29
2018-07-26T04:38:03.850Z,1000.27
2018-07-26T04:39:03.841Z,1000.21
2018-07-26T04:40:03.831Z,1000.26
2018-07-26T04:41:03.838Z,1000.22
2018-07-26T04:42:03.852Z,1000.22
2018-07-26T04:43:03.835Z,1000.23
2018-07-26T04:44:03.809Z,1000.23
2018-07-26T04:45:03.822Z,1000.22
2018-07-26T04:46:03.768Z,1000.21
2018-07-26T04:47:03.795Z,1000.22
2018-07-26T04:48:03.744Z,1000.18
2018-07-26T04:49:03.736Z,1000.17
2018-07-26T04:50:03.722Z,1000.23
2018-07-26T04:51:03.714Z,1000.24
2018-07-26T04:52:03.728Z,1000.20
2018-07-26T04:53:03.690Z,1000.19
2018-07-26T04:54:03.688Z,1000.20
2018-07-26T04:55:03.670Z,1000.20
2018-07-26T04:56:03.659Z,1000.21
2018-07-26T04:57:03.667Z,1000.19
2018-07-26T04:58:03.646Z,1000.22
2018-07-26T04:59:03.628Z,1000.22
2018-07-26T05:00:03.624Z,1000.19
2018-07-26T05:01:03.606Z,1000.19
2018-07-26T05:02:03.640Z,1000.23
2018-07-26T05:03:03.601Z,1000.22
2018-07-26T05:04:03.595Z,1000.27
2018-07-26T05:05:03.563Z,1000.24
2018-07-26T05:06:03.556Z,1000.21
2018-07-26T05:07:03.564Z,1000.25
2018-07-26T05:08:03.580Z,1000.25
2018-07-26T05:09:03.520Z,1000.24
2018-07-26T05:10:03.509Z,1000.27
2018-07-26T05:11:03.513Z,1000.29
2018-07-26T05:12:03.508Z,1000.24
2018-07-26T05:13:03.486Z,1000.27
2018-07-26T05:14:03.467Z,1000.28
2018-07-26T05:15:03.468Z,1000.28
2018-07-26T05:16:03.444Z,1000.26
2018-07-26T05:17:03.453Z,1000.25
2018-07-26T05:18:03.422Z,1000.23
2018-07-26T05:19:03.494Z,1000.21
2018-07-26T05:20:03.403Z,1000.20
2018-07-26T05:21:03.391Z,1000.22
2018-07-26T05:22:03.432Z,1000.21
2018-07-26T05:23:03.378Z,1000.18
2018-07-26T05:24:03.367Z,1000.26
2018-07-26T05:25:03.345Z,1000.20
2018-07-26T05:26:03.335Z,1000.22
2018-07-26T05:27:03.348Z,1000.24
2018-07-26T05:28:03.420Z,1000.26
2018-07-26T05:29:03.309Z,1000.26
2018-07-26T05:30:03.300Z,1000.25
2018-07-26T05:31:03.311Z,1000.27
2018-07-26T05:32:03.314Z,1000.28
2018-07-26T05:33:03.258Z,1000.27
2018-07-26T05:34:03.255Z,1000.29
2018-07-26T05:35:03.241Z,1000.29
2018-07-26T05:36:03.231Z,1000.25
2018-07-26T05:37:03.232Z,1000.27
2018-07-26T05:38:03.220Z,1000.30
2018-07-26T05:39:03.193Z,1000.29
2018-07-26T05:40:03.181Z,1000.31
2018-07-26T05:41:03.171Z,1000.28
2018-07-26T05:42:03.179Z,1000.33
2018-07-26T05:43:03.161Z,1000.31
2018-07-26T05:44:03.149Z,1000.31
2018-07-26T05:45:03.135Z,1000.32
2018-07-26T05:46:03.126Z,1000.34
2018-07-26T05:47:03.144Z,1000.37
2018-07-26T05:48:03.095Z,1000.37
2018-07-26T05:49:03.085Z,1000.35
2018-07-26T05:50:03.089Z,1000.38
2018-07-26T05:51:03.089Z,1000.37
2018-07-26T05:52:03.070Z,1000.37
2018-07-26T05:53:03.040Z,1000.37
2018-07-26T05:54:03.031Z,1000.33
2018-07-26T05:55:03.019Z,1000.33
2018-07-26T05:56:03.012Z,1000.36
2018-07-26T05:57:03.023Z,1000.34
2018-07-26T05:58:02.988Z,1000.36
2018-07-26T05:59:02.985Z,1000.39
2018-07-26T06:00:02.978Z,1000.38
2018-07-26T06:01:02.967Z,1000.41
2018-07-26T06:02:02.991Z,1000.42
2018-07-26T06:03:02.932Z,1000.41
2018-07-26T06:04:02.923Z,1000.45
2018-07-26T06:05:02.925Z,1000.48
2018-07-26T06:06:02.909Z,1000.52
2018-07-26T06:07:02.908Z,1000.51
2018-07-26T06:08:02.879Z,1000.48
2018-07-26T06:09:02.879Z,1000.48
2018-07-26T06:10:02.876Z,1000.49
2018-07-26T06:11:02.846Z,1000.51
2018-07-26T06:12:02.856Z,1000.49
2018-07-26T06:13:02.828Z,1000.51
2018-07-26T06:14:02.814Z,1000.51
2018-07-26T06:15:02.815Z,1000.48
2018-07-26T06:16:02.819Z,1000.51
2018-07-26T06:17:02.839Z,1000.56
2018-07-26T06:18:02.782Z,1000.52
2018-07-26T06:19:02.791Z,1000.55
2018-07-26T06:20:02.783Z,1000.52
2018-07-26T06:21:02.763Z,1000.49
2018-07-26T06:22:02.747Z,1000.54
2018-07-26T06:23:02.717Z,1000.52
2018-07-26T06:24:02.717Z,1000.55
2018-07-26T06:25:02.698Z,1000.52
2018-07-26T06:26:02.704Z,1000.57
2018-07-26T06:27:02.697Z,1000.50
2018-07-26T06:28:02.746Z,1000.54
2018-07-26T06:29:02.656Z,1000.50
2018-07-26T06:30:02.642Z,1000.51
2018-07-26T06:31:02.632Z,1000.49
2018-07-26T06:32:02.641Z,1000.53
2018-07-26T06:33:02.614Z,1000.52
2018-07-26T06:34:02.600Z,1000.51
2018-07-26T06:35:02.609Z,1000.56
2018-07-26T06:36:02.581Z,1000.50
2018-07-26T06:37:02.606Z,1000.54
2018-07-26T06:38:02.556Z,1000.51
2018-07-26T06:39:02.559Z,1000.48
2018-07-26T06:40:02.535Z,1000.52
2018-07-26T06:41:02.525Z,1000.56
2018-07-26T06:42:02.532Z,1000.55
2018-07-26T06:43:02.522Z,1000.54
2018-07-26T06:44:02.491Z,1000.52
2018-07-26T06:45:02.481Z,1000.50
2018-07-26T06:46:02.469Z,1000.53
2018-07-26T06:47:02.527Z,1000.51
2018-07-26T06:48:02.457Z,1000.46
2018-07-26T06:49:02.440Z,1000.45
2018-07-26T06:50:02.433Z,1000.46
2018-07-26T06:51:02.425Z,1000.45
2018-07-26T06:52:02.433Z,1000.43
2018-07-26T06:53:02.417Z,1000.49
2018-07-26T06:54:02.397Z,1000.49
2018-07-26T06:55:02.373Z,1000.50
2018-07-26T06:56:02.362Z,1000.45
2018-07-26T06:57:02.375Z,1000.47
2018-07-26T06:58:02.359Z,1000.51
2018-07-26T06:59:02.336Z,1000.46
2018-07-26T07:00:02.331Z,1000.43
2018-07-26T07:01:02.313Z,1000.47
2018-07-26T07:02:02.332Z,1000.44
2018-07-26T07:03:02.300Z,1000.48
2018-07-26T07:04:02.296Z,1000.46
2018-07-26T07:05:02.318Z,1000.49
2018-07-26T07:06:02.304Z,1000.50
2018-07-26T07:07:02.309Z,1000.48
2018-07-26T07:08:02.237Z,1000.49
2018-07-26T07:09:02.231Z,1000.52
2018-07-26T07:10:02.217Z,1000.54
2018-07-26T07:11:02.201Z,1000.50
2018-07-26T07:12:02.219Z,1000.55
2018-07-26T07:13:02.198Z,1000.51
2018-07-26T07:14:02.170Z,1000.53
2018-07-26T07:15:02.161Z,1000.46
2018-07-26T07:16:02.150Z,1000.47
2018-07-26T07:17:02.165Z,1000.46
2018-07-26T07:18:02.129Z,1000.45
2018-07-26T07:19:02.117Z,1000.47
2018-07-26T07:20:02.109Z,1000.46
2018-07-26T07:21:02.110Z,1000.49
2018-07-26T07:22:02.085Z,1000.44
2018-07-26T07:23:02.094Z,1000.45
2018-07-26T07:24:02.066Z,1000.45
2018-07-26T07:25:02.068Z,1000.43
2018-07-26T07:26:02.056Z,1000.46
2018-07-26T07:27:02.037Z,1000.47
2018-07-26T07:28:02.045Z,1000.46
2018-07-26T07:29:02.015Z,1000.46
2018-07-26T07:30:02.021Z,1000.45
2018-07-26T07:31:01.997Z,1000.47
2018-07-26T07:32:01.978Z,1000.47
2018-07-26T07:33:02.005Z,1000.44
2018-07-26T07:34:01.956Z,1000.39
2018-07-26T07:35:01.949Z,1000.37
2018-07-26T07:36:01.936Z,1000.42
2018-07-26T07:37:01.925Z,1000.40
2018-07-26T07:38:01.940Z,1000.39
2018-07-26T07:39:01.910Z,1000.38
2018-07-26T07:40:01.901Z,1000.42
2018-07-26T07:41:01.880Z,1000.43
2018-07-26T07:42:01.869Z,1000.37
2018-07-26T07:43:01.881Z,1000.41
2018-07-26T07:44:01.848Z,1000.33
2018-07-26T07:45:01.848Z,1000.36
2018-07-26T07:46:01.826Z,1000.39
2018-07-26T07:47:01.817Z,1000.37
2018-07-26T07:48:01.823Z,1000.39
2018-07-26T07:49:01.803Z,1000.37
2018-07-26T07:50:01.819Z,1000.38
2018-07-26T07:51:01.815Z,1000.39
2018-07-26T07:52:01.792Z,1000.43
2018-07-26T07:53:01.785Z,1000.39
2018-07-26T07:54:01.783Z,1000.40
2018-07-26T07:55:01.732Z,1000.38
2018-07-26T07:56:01.720Z,1000.37
2018-07-26T07:57:01.714Z,1000.40
2018-07-26T07:58:01.717Z,1000.39
2018-07-26T07:59:01.708Z,1000.39
2018-07-26T08:00:01.714Z,1000.41
2018-07-26T08:01:01.668Z,1000.38
2018-07-26T08:02:01.656Z,1000.38
2018-07-26T08:03:01.677Z,1000.38
2018-07-26T08:04:01.636Z,1000.35
2018-07-26T08:05:01.625Z,1000.34
2018-07-26T08:06:01.616Z,1000.35
2018-07-26T08:07:01.604Z,1000.37
2018-07-26T08:08:01.625Z,1000.38
2018-07-26T08:09:01.586Z,1000.40
2018-07-26T08:10:01.593Z,1000.41
2018-07-26T08:11:01.564Z,1000.41
2018-07-26T08:12:01.567Z,1000.38
2018-07-26T08:13:01.559Z,1000.38
2018-07-26T08:14:01.549Z,1000.40
2018-07-26T08:15:01.520Z,1000.38
2018-07-26T08:16:01.510Z,1000.45
2018-07-26T08:17:01.499Z,1000.41
2018-07-26T08:18:01.515Z,1000.42
2018-07-26T08:19:01.507Z,1000.39
2018-07-26T08:20:01.470Z,1000.43
2018-07-26T08:21:01.459Z,1000.40
2018-07-26T08:22:01.463Z,1000.41
2018-07-26T08:23:01.469Z,1000.45
2018-07-26T08:24:01.426Z,1000.42
2018-07-26T08:25:01.415Z,1000.42
2018-07-26T08:26:01.412Z,1000.43
2018-07-26T08:27:01.394Z,1000.50
2018-07-26T08:28:01.403Z,1000.59
2018-07-26T08:29:01.373Z,1000.61
2018-07-26T08:30:01.363Z,1000.70
2018-07-26T08:31:01.378Z,1000.69
2018-07-26T08:32:01.342Z,1000.78
2018-07-26T08:33:01.390Z,1000.81
2018-07-26T08:34:01.321Z,1000.85
2018-07-26T08:35:01.319Z,1000.82
2018-07-26T08:36:01.308Z,1000.82
2018-07-26T08:37:01.301Z,1000.86
2018-07-26T08:38:01.309Z,1000.92
2018-07-26T08:39:01.304Z,1000.92
2018-07-26T08:40:01.279Z,1000.88
2018-07-26T08:41:01.313Z,1000.90
2018-07-26T08:42:01.243Z,1000.88
2018-07-26T08:43:01.283Z,1000.88
2018-07-26T08:44:01.224Z,1000.83
2018-07-26T08:45:01.217Z,1000.77
2018-07-26T08:46:01.231Z,1000.74
2018-07-26T08:47:01.193Z,1000.65
2018-07-26T08:48:01.201Z,1000.64
2018-07-26T08:49:01.179Z,1000.63
2018-07-26T08:50:01.164Z,1000.63
2018-07-26T08:51:01.154Z,1000.62
2018-07-26T08:52:01.144Z,1000.62
2018-07-26T08:53:01.169Z,1000.60
2018-07-26T08:54:01.127Z,1000.63
2018-07-26T08:55:01.115Z,1000.59
2018-07-26T08:56:01.105Z,1000.60
2018-07-26T08:57:01.113Z,1000.58
2018-07-26T08:58:01.112Z,1000.56
2018-07-26T08:59:01.075Z,1000.58
2018-07-26T09:00:01.065Z,1000.59
2018-07-26T09:01:01.077Z,1000.58
2018-07-26T09:02:01.054Z,1000.57
2018-07-26T09:03:01.074Z,1000.61
2018-07-26T09:04:01.047Z,1000.62
2018-07-26T09:05:01.020Z,1000.62
2018-07-26T09:06:01.019Z,1000.56
2018-07-26T09:07:01.000Z,1000.55
2018-07-26T09:08:01.006Z,1000.61
2018-07-26T09:09:00.977Z,1000.53
2018-07-26T09:10:01.036Z,1000.56
2018-07-26T09:11:01.154Z,1000.65
2018-07-26T09:12:00.949Z,1000.59
2018-07-26T09:13:00.956Z,1000.67
2018-07-26T09:14:00.927Z,1000.77
2018-07-26T09:15:00.924Z,1000.82
2018-07-26T09:16:00.924Z,1000.92
2018-07-26T09:17:00.903Z,1000.90
2018-07-26T09:18:00.916Z,1000.95
2018-07-26T09:19:00.878Z,1000.95
2018-07-26T09:20:00.872Z,1000.98
2018-07-26T09:21:00.861Z,1000.98
2018-07-26T09:22:00.867Z,1000.98
2018-07-26T09:23:00.891Z,1000.92
2018-07-26T09:24:00.832Z,1000.98
2018-07-26T09:25:00.823Z,1001.00
2018-07-26T09:26:00.825Z,1000.98
2018-07-26T09:27:00.803Z,1000.95
2018-07-26T09:28:00.844Z,1000.97
2018-07-26T09:29:00.824Z,1000.94
2018-07-26T09:30:00.776Z,1000.97
2018-07-26T09:31:00.771Z,1000.92
2018-07-26T09:32:00.780Z,1000.77
2018-07-26T09:33:00.853Z,1000.67
2018-07-26T09:34:00.746Z,1000.59
2018-07-26T09:35:00.728Z,1000.48
2018-07-26T09:36:00.721Z,1000.47
2018-07-26T09:37:00.759Z,1000.42
2018-07-26T09:38:00.740Z,1000.39
2018-07-26T09:39:00.692Z,1000.34
2018-07-26T09:40:00.682Z,1000.30
2018-07-26T09:41:00.683Z,1000.30
2018-07-26T09:42:00.673Z,1000.27
2018-07-26T09:43:00.673Z,1000.21
2018-07-26T09:44:00.641Z,1000.20
2018-07-26T09:45:00.631Z,1000.17
2018-07-26T09:46:00.634Z,1000.24
2018-07-26T09:47:00.647Z,1000.21
2018-07-26T09:48:00.630Z,1000.22
2018-07-26T09:49:00.592Z,1000.20
2018-07-26T09:50:00.585Z,1000.13
2018-07-26T09:51:00.572Z,1000.17
2018-07-26T09:52:00.564Z,1000.23
2018-07-26T09:53:00.572Z,1000.19
2018-07-26T09:54:00.542Z,1000.25
2018-07-26T09:55:00.550Z,1000.15
2018-07-26T09:56:00.533Z,1000.21
2018-07-26T09:57:00.512Z,1000.17
2018-07-26T09:58:00.538Z,1000.20
2018-07-26T09:59:00.492Z,1000.21
2018-07-26T10:00:00.482Z,1000.14
2018-07-26T10:01:00.474Z,1000.11
2018-07-26T10:02:00.475Z,1000.10
2018-07-26T10:03:00.481Z,1000.09
2018-07-26T10:04:00.447Z,1000.07
2018-07-26T10:05:00.458Z,1000.11
2018-07-26T10:06:00.423Z,1000.09
2018-07-26T10:07:00.448Z,1000.06
2018-07-26T10:08:00.438Z,1000.08
2018-07-26T10:09:00.392Z,1000.03
2018-07-26T10:10:00.384Z,1000.05
2018-07-26T10:11:00.391Z,1000.06
2018-07-26T10:12:00.361Z,1000.04
2018-07-26T10:13:00.443Z,1000.09
2018-07-26T10:14:00.360Z,1000.05
2018-07-26T10:15:00.339Z,1000.06
2018-07-26T10:16:00.385Z,1000.04
2018-07-26T10:17:00.318Z,1000.00
2018-07-26T10:18:00.339Z,999.99
2018-07-26T10:19:00.293Z,1000.04
2018-07-26T10:20:00.297Z,1000.03
2018-07-26T10:21:00.298Z,1000.04
2018-07-26T10:22:00.318Z,1000.00
2018-07-26T10:23:00.314Z,1000.03
2018-07-26T10:24:00.243Z,1000.02
2018-07-26T10:25:00.234Z,1000.07
2018-07-26T10:26:00.223Z,1000.04
2018-07-26T10:27:00.211Z,1000.07
2018-07-26T10:28:00.254Z,1000.00
2018-07-26T10:29:00.191Z,1000.04
2018-07-26T10:30:00.181Z,1000.05
2018-07-26T10:31:00.183Z,1000.03
2018-07-26T10:32:00.161Z,1000.01
2018-07-26T10:33:00.193Z,1000.04
2018-07-26T10:34:00.142Z,1000.04
2018-07-26T10:35:00.134Z,1000.03
2018-07-26T10:36:00.127Z,1000.02
2018-07-26T10:37:00.112Z,1000.03
2018-07-26T10:38:00.112Z,1000.02
2018-07-26T10:39:00.113Z,1000.00
2018-07-26T10:40:00.086Z,1000.06
2018-07-26T10:41:00.073Z,1000.06
2018-07-26T10:42:00.069Z,1000.06
2018-07-26T10:43:00.051Z,1000.07
2018-07-26T10:44:00.060Z,1000.05
2018-07-26T10:45:00.033Z,1000.02
2018-07-26T10:46:00.027Z,1000.04
2018-07-26T10:47:00.012Z,1000.02
2018-07-26T10:48:00.038Z,999.98
2018-07-26T10:49:00.013Z,999.92
2018-07-26T10:50:00.028Z,999.94
2018-07-26T10:50:59.981Z,999.92
2018-07-26T10:51:59.960Z,999.96
2018-07-26T10:52:59.950Z,1000.00
2018-07-26T10:53:59.960Z,999.92
2018-07-26T10:54:59.929Z,999.94
2018-07-26T10:55:59.920Z,999.92
2018-07-26T10:56:59.911Z,999.89
2018-07-26T10:57:59.921Z,999.93
2018-07-26T10:58:59.927Z,999.93
2018-07-26T10:59:59.879Z,999.93
2018-07-26T11:00:59.870Z,999.90
2018-07-26T11:01:59.878Z,999.93
2018-07-26T11:02:59.849Z,999.90
2018-07-26T11:03:59.858Z,999.86
2018-07-26T11:04:59.830Z,999.87
2018-07-26T11:05:59.832Z,999.84
2018-07-26T11:06:59.888Z,999.84
2018-07-26T11:07:59.830Z,999.90
2018-07-26T11:08:59.829Z,999.86
2018-07-26T11:09:59.802Z,999.83
2018-07-26T11:10:59.769Z,999.86
2018-07-26T11:11:59.761Z,999.82
2018-07-26T11:12:59.756Z,999.88
2018-07-26T11:13:59.757Z,999.96
2018-07-26T11:14:59.785Z,1000.03
2018-07-26T11:15:59.719Z,1000.25
2018-07-26T11:16:59.719Z,1000.41
2018-07-26T11:17:59.699Z,1000.47
2018-07-26T11:18:59.751Z,1000.61
2018-07-26T11:19:59.679Z,1000.38
2018-07-26T11:20:59.671Z,1000.75
2018-07-26T11:21:59.667Z,1000.78
2018-07-26T11:22:59.651Z,1000.77
2018-07-26T11:23:59.684Z,1000.77
2018-07-26T11:24:59.634Z,1000.82
2018-07-26T11:25:59.626Z,1000.86
2018-07-26T11:26:59.644Z,1000.92
2018-07-26T11:27:59.609Z,1000.91
2018-07-26T11:28:59.621Z,1000.95
2018-07-26T11:29:59.652Z,1000.94
2018-07-26T11:30:59.609Z,1000.90
2018-07-26T11:31:59.580Z,1000.93
2018-07-26T11:32:59.571Z,1000.96
2018-07-26T11:33:59.604Z,1000.90
2018-07-26T11:34:59.565Z,1000.89
2018-07-26T11:35:59.619Z,1000.84
2018-07-26T11:36:59.539Z,1000.89
2018-07-26T11:37:59.596Z,1000.84
2018-07-26T11:38:59.542Z,1000.85
2018-07-26T11:39:59.531Z,1000.82
2018-07-26T11:40:59.508Z,1000.86
2018-07-26T11:41:59.504Z,1000.89
2018-07-26T11:42:59.496Z,1000.89
2018-07-26T11:43:59.503Z,1000.96
2018-07-26T11:44:59.474Z,1000.91
2018-07-26T11:45:59.484Z,1000.82
2018-07-26T11:46:59.460Z,1000.75
2018-07-26T11:47:59.453Z,1000.79
2018-07-26T11:48:59.471Z,1000.86
2018-07-26T11:49:59.451Z,1000.83
2018-07-26T11:50:59.444Z,1000.85
2018-07-26T11:51:59.437Z,1000.91
2018-07-26T11:52:59.416Z,1000.86
2018-07-26T11:53:59.431Z,1000.84
2018-07-26T11:54:59.424Z,1000.87
2018-07-26T11:55:59.411Z,1000.85
2018-07-26T11:56:59.409Z,1000.78
2018-07-26T11:57:59.406Z,1000.88
2018-07-26T11:58:59.401Z,1000.88
2018-07-26T11:59:59.405Z,1000.88
2018-07-26T12:00:59.364Z,1000.92
2018-07-26T12:01:59.369Z,1000.84
2018-07-26T12:02:59.347Z,1000.88
2018-07-26T12:03:59.384Z,1000.79
2018-07-26T12:04:59.344Z,1000.88
2018-07-26T12:05:59.328Z,1000.86